sensor_id;sensor_type;location;lat;lon;timestamp;temperature;humidity
15765;DHT22;7983;50.744;7.086;2024-02-21T00:02:07;11.20;99.90
15765;DHT22;7983;50.744;7.086;2024-02-21T00:04:33;11.30;99.90
15765;DHT22;7983;50.744;7.086;2024-02-21T00:07:01;11.20;99.90
15765;DHT22;7983;50.744;7.086;2024-02-21T00:09:27;11.20;99.90
15765;DHT22;7983;50.744;7.086;2024-02-21T00:11:53;11.30;99.90
15765;DHT22;7983;50.744;7.086;2024-02-21T00:14:18;11.20;99.90
15765;DHT22;7983;50.744;7.086;2024-02-21T00:16:46;11.30;99.90
15765;DHT22;7983;50.744;7.086;2024-02-21T00:19:12;11.20;99.90
15765;DHT22;7983;50.744;7.086;2024-02-21T00:21:42;11.10;99.90
15765;DHT22;7983;50.744;7.086;2024-02-21T00:24:07;11.30;99.90
15765;DHT22;7983;50.744;7.086;2024-02-21T00:26:33;11.30;99.90
15765;DHT22;7983;50.744;7.086;2024-02-21T00:28:58;11.30;99.90
15765;DHT22;7983;50.744;7.086;2024-02-21T00:31:24;11.20;99.90
15765;DHT22;7983;50.744;7.086;2024-02-21T00:33:50;11.30;99.90
15765;DHT22;7983;50.744;7.086;2024-02-21T00:36:16;11.30;99.90
15765;DHT22;7983;50.744;7.086;2024-02-21T00:38:44;11.30;99.90
15765;DHT22;7983;50.744;7.086;2024-02-21T00:41:12;11.30;99.90
15765;DHT22;7983;50.744;7.086;2024-02-21T00:43:37;11.30;99.90
15765;DHT22;7983;50.744;7.086;2024-02-21T00:46:06;11.20;99.90
15765;DHT22;7983;50.744;7.086;2024-02-21T00:48:31;11.20;99.90
15765;DHT22;7983;50.744;7.086;2024-02-21T00:50:57;11.20;99.90
15765;DHT22;7983;50.744;7.086;2024-02-21T00:53:25;11.30;99.90
15765;DHT22;7983;50.744;7.086;2024-02-21T00:55:51;11.30;99.90
15765;DHT22;7983;50.744;7.086;2024-02-21T00:58:19;11.30;99.90
15765;DHT22;7983;50.744;7.086;2024-02-21T01:00:47;11.50;99.90
15765;DHT22;7983;50.744;7.086;2024-02-21T01:03:13;11.30;99.90
15765;DHT22;7983;50.744;7.086;2024-02-21T01:05:38;11.20;99.90
15765;DHT22;7983;50.744;7.086;2024-02-21T01:08:06;11.20;99.90
15765;DHT22;7983;50.744;7.086;2024-02-21T01:10:32;11.20;99.90
15765;DHT22;7983;50.744;7.086;2024-02-21T01:12:57;11.30;99.90
15765;DHT22;7983;50.744;7.086;2024-02-21T01:15:27;11.20;99.90
15765;DHT22;7983;50.744;7.086;2024-02-21T01:17:53;11.30;99.90
15765;DHT22;7983;50.744;7.086;2024-02-21T01:20:23;11.20;99.90
15765;DHT22;7983;50.744;7.086;2024-02-21T01:22:48;11.30;99.90
15765;DHT22;7983;50.744;7.086;2024-02-21T01:25:14;11.20;99.90
15765;DHT22;7983;50.744;7.086;2024-02-21T01:27:40;11.30;99.90
15765;DHT22;7983;50.744;7.086;2024-02-21T01:30:06;11.30;99.90
15765;DHT22;7983;50.744;7.086;2024-02-21T01:32:34;11.30;99.90
15765;DHT22;7983;50.744;7.086;2024-02-21T01:35:02;11.30;99.90
15765;DHT22;7983;50.744;7.086;2024-02-21T01:37:28;11.30;99.90
15765;DHT22;7983;50.744;7.086;2024-02-21T01:39:56;11.30;99.90
15765;DHT22;7983;50.744;7.086;2024-02-21T01:42:21;11.30;99.90
15765;DHT22;7983;50.744;7.086;2024-02-21T01:44:47;11.30;99.90
15765;DHT22;7983;50.744;7.086;2024-02-21T01:47:13;11.30;99.90
15765;DHT22;7983;50.744;7.086;2024-02-21T01:49:43;11.30;99.90
15765;DHT22;7983;50.744;7.086;2024-02-21T01:52:12;11.20;99.90
15765;DHT22;7983;50.744;7.086;2024-02-21T01:54:39;11.20;99.90
15765;DHT22;7983;50.744;7.086;2024-02-21T01:57:05;11.10;99.90
15765;DHT22;7983;50.744;7.086;2024-02-21T01:59:31;11.20;99.90
15765;DHT22;7983;50.744;7.086;2024-02-21T02:02:00;11.20;99.90
15765;DHT22;7983;50.744;7.086;2024-02-21T02:04:26;11.20;99.90
15765;DHT22;7983;50.744;7.086;2024-02-21T02:06:54;11.20;99.90
15765;DHT22;7983;50.744;7.086;2024-02-21T02:09:20;11.20;99.90
15765;DHT22;7983;50.744;7.086;2024-02-21T02:11:45;11.20;99.90
15765;DHT22;7983;50.744;7.086;2024-02-21T02:14:11;11.10;99.90
15765;DHT22;7983;50.744;7.086;2024-02-21T02:16:36;11.10;99.90
15765;DHT22;7983;50.744;7.086;2024-02-21T02:19:07;11.20;99.90
15765;DHT22;7983;50.744;7.086;2024-02-21T02:21:40;11.10;99.90
15765;DHT22;7983;50.744;7.086;2024-02-21T02:24:07;11.10;99.90
15765;DHT22;7983;50.744;7.086;2024-02-21T02:26:38;11.10;99.90
15765;DHT22;7983;50.744;7.086;2024-02-21T02:29:03;11.20;99.90
15765;DHT22;7983;50.744;7.086;2024-02-21T02:31:29;11.10;99.90
15765;DHT22;7983;50.744;7.086;2024-02-21T02:33:55;11.10;99.90
15765;DHT22;7983;50.744;7.086;2024-02-21T02:36:22;11.10;99.90
15765;DHT22;7983;50.744;7.086;2024-02-21T02:38:50;11.10;99.90
15765;DHT22;7983;50.744;7.086;2024-02-21T02:41:16;11.00;99.90
15765;DHT22;7983;50.744;7.086;2024-02-21T02:43:41;11.00;99.90
15765;DHT22;7983;50.744;7.086;2024-02-21T02:46:09;10.90;99.90
15765;DHT22;7983;50.744;7.086;2024-02-21T02:48:37;11.00;99.90
15765;DHT22;7983;50.744;7.086;2024-02-21T02:51:04;10.90;99.90
15765;DHT22;7983;50.744;7.086;2024-02-21T02:53:29;10.90;99.90
15765;DHT22;7983;50.744;7.086;2024-02-21T02:55:59;10.90;99.90
15765;DHT22;7983;50.744;7.086;2024-02-21T02:58:25;10.90;99.90
15765;DHT22;7983;50.744;7.086;2024-02-21T03:00:50;10.90;99.90
15765;DHT22;7983;50.744;7.086;2024-02-21T03:03:18;10.80;99.90
15765;DHT22;7983;50.744;7.086;2024-02-21T03:05:46;10.80;99.90
15765;DHT22;7983;50.744;7.086;2024-02-21T03:08:12;10.80;99.90
15765;DHT22;7983;50.744;7.086;2024-02-21T03:10:37;10.70;99.90
15765;DHT22;7983;50.744;7.086;2024-02-21T03:13:05;10.80;99.90
15765;DHT22;7983;50.744;7.086;2024-02-21T03:15:31;10.80;99.90
15765;DHT22;7983;50.744;7.086;2024-02-21T03:17:57;10.80;99.90
15765;DHT22;7983;50.744;7.086;2024-02-21T03:20:22;10.70;99.90
15765;DHT22;7983;50.744;7.086;2024-02-21T03:22:48;10.80;99.90
15765;DHT22;7983;50.744;7.086;2024-02-21T03:25:14;10.70;99.90
15765;DHT22;7983;50.744;7.086;2024-02-21T03:27:40;10.70;99.90
15765;DHT22;7983;50.744;7.086;2024-02-21T03:30:06;10.80;99.90
15765;DHT22;7983;50.744;7.086;2024-02-21T03:32:32;10.70;99.90
15765;DHT22;7983;50.744;7.086;2024-02-21T03:35:00;10.70;99.90
15765;DHT22;7983;50.744;7.086;2024-02-21T03:37:25;10.70;99.90
15765;DHT22;7983;50.744;7.086;2024-02-21T03:39:53;10.70;99.90
15765;DHT22;7983;50.744;7.086;2024-02-21T03:42:21;10.70;99.90
15765;DHT22;7983;50.744;7.086;2024-02-21T03:44:47;10.60;99.90
15765;DHT22;7983;50.744;7.086;2024-02-21T03:47:15;10.60;99.90
15765;DHT22;7983;50.744;7.086;2024-02-21T03:49:41;10.60;99.90
15765;DHT22;7983;50.744;7.086;2024-02-21T03:52:09;10.60;99.90
15765;DHT22;7983;50.744;7.086;2024-02-21T03:54:34;10.60;99.90
15765;DHT22;7983;50.744;7.086;2024-02-21T03:57:02;10.60;99.90
15765;DHT22;7983;50.744;7.086;2024-02-21T03:59:28;10.60;99.90
15765;DHT22;7983;50.744;7.086;2024-02-21T04:01:56;10.60;99.90
15765;DHT22;7983;50.744;7.086;2024-02-21T04:04:24;10.60;99.90
15765;DHT22;7983;50.744;7.086;2024-02-21T04:06:50;10.50;99.90
15765;DHT22;7983;50.744;7.086;2024-02-21T04:09:16;10.60;99.90
15765;DHT22;7983;50.744;7.086;2024-02-21T04:11:44;10.60;99.90
15765;DHT22;7983;50.744;7.086;2024-02-21T04:14:12;10.60;99.90
15765;DHT22;7983;50.744;7.086;2024-02-21T04:16:38;10.60;99.90
15765;DHT22;7983;50.744;7.086;2024-02-21T04:19:06;10.50;99.90
15765;DHT22;7983;50.744;7.086;2024-02-21T04:21:34;10.50;99.90
15765;DHT22;7983;50.744;7.086;2024-02-21T04:24:00;10.50;99.90
15765;DHT22;7983;50.744;7.086;2024-02-21T04:26:27;10.50;99.90
15765;DHT22;7983;50.744;7.086;2024-02-21T04:28:53;10.60;99.90
15765;DHT22;7983;50.744;7.086;2024-02-21T04:31:21;10.50;99.90
15765;DHT22;7983;50.744;7.086;2024-02-21T04:33:46;10.60;99.90
15765;DHT22;7983;50.744;7.086;2024-02-21T04:36:12;10.50;99.90
15765;DHT22;7983;50.744;7.086;2024-02-21T04:38:40;10.60;99.90
15765;DHT22;7983;50.744;7.086;2024-02-21T04:41:06;10.50;99.90
15765;DHT22;7983;50.744;7.086;2024-02-21T04:43:31;10.60;99.90
15765;DHT22;7983;50.744;7.086;2024-02-21T04:46:02;10.60;99.90
15765;DHT22;7983;50.744;7.086;2024-02-21T04:48:27;10.60;99.90
15765;DHT22;7983;50.744;7.086;2024-02-21T04:50:53;10.60;99.90
15765;DHT22;7983;50.744;7.086;2024-02-21T04:53:18;10.60;99.90
15765;DHT22;7983;50.744;7.086;2024-02-21T04:55:44;10.60;99.90
15765;DHT22;7983;50.744;7.086;2024-02-21T04:58:10;10.60;99.90
15765;DHT22;7983;50.744;7.086;2024-02-21T05:00:35;10.60;99.90
15765;DHT22;7983;50.744;7.086;2024-02-21T05:03:06;10.60;99.90
15765;DHT22;7983;50.744;7.086;2024-02-21T05:05:33;10.60;99.90
15765;DHT22;7983;50.744;7.086;2024-02-21T05:07:59;10.60;99.90
15765;DHT22;7983;50.744;7.086;2024-02-21T05:10:25;10.70;99.90
15765;DHT22;7983;50.744;7.086;2024-02-21T05:12:53;10.60;99.90
15765;DHT22;7983;50.744;7.086;2024-02-21T05:15:18;10.70;99.90
15765;DHT22;7983;50.744;7.086;2024-02-21T05:17:47;10.70;99.90
15765;DHT22;7983;50.744;7.086;2024-02-21T05:20:15;10.60;99.90
15765;DHT22;7983;50.744;7.086;2024-02-21T05:22:45;10.60;99.90
15765;DHT22;7983;50.744;7.086;2024-02-21T05:25:10;10.60;99.90
15765;DHT22;7983;50.744;7.086;2024-02-21T05:27:38;10.60;99.90
15765;DHT22;7983;50.744;7.086;2024-02-21T05:30:07;10.60;99.90
15765;DHT22;7983;50.744;7.086;2024-02-21T05:32:35;10.60;99.90
15765;DHT22;7983;50.744;7.086;2024-02-21T05:35:05;10.60;99.90
15765;DHT22;7983;50.744;7.086;2024-02-21T05:37:31;10.60;99.90
15765;DHT22;7983;50.744;7.086;2024-02-21T05:39:57;10.60;99.90
15765;DHT22;7983;50.744;7.086;2024-02-21T05:42:22;10.60;99.90
15765;DHT22;7983;50.744;7.086;2024-02-21T05:44:48;10.60;99.90
15765;DHT22;7983;50.744;7.086;2024-02-21T05:47:13;10.60;99.90
15765;DHT22;7983;50.744;7.086;2024-02-21T05:49:42;10.60;99.90
15765;DHT22;7983;50.744;7.086;2024-02-21T05:52:08;10.60;99.90
15765;DHT22;7983;50.744;7.086;2024-02-21T05:54:36;10.70;99.90
15765;DHT22;7983;50.744;7.086;2024-02-21T05:57:02;10.60;99.90
15765;DHT22;7983;50.744;7.086;2024-02-21T05:59:28;10.60;99.90
15765;DHT22;7983;50.744;7.086;2024-02-21T06:01:59;10.60;99.90
15765;DHT22;7983;50.744;7.086;2024-02-21T06:04:25;10.60;99.90
15765;DHT22;7983;50.744;7.086;2024-02-21T06:06:53;10.60;99.90
15765;DHT22;7983;50.744;7.086;2024-02-21T06:09:21;10.60;99.90
15765;DHT22;7983;50.744;7.086;2024-02-21T06:11:49;10.60;99.90
15765;DHT22;7983;50.744;7.086;2024-02-21T06:14:17;10.60;99.90
15765;DHT22;7983;50.744;7.086;2024-02-21T06:16:44;10.60;99.90
15765;DHT22;7983;50.744;7.086;2024-02-21T06:19:12;10.60;99.90
15765;DHT22;7983;50.744;7.086;2024-02-21T06:21:39;10.70;99.90
15765;DHT22;7983;50.744;7.086;2024-02-21T06:24:07;10.60;99.90
15765;DHT22;7983;50.744;7.086;2024-02-21T06:26:35;10.70;99.90
15765;DHT22;7983;50.744;7.086;2024-02-21T06:29:01;10.70;99.90
15765;DHT22;7983;50.744;7.086;2024-02-21T06:31:31;10.60;99.90
15765;DHT22;7983;50.744;7.086;2024-02-21T06:34:01;10.70;99.90
15765;DHT22;7983;50.744;7.086;2024-02-21T06:36:27;10.70;99.90
15765;DHT22;7983;50.744;7.086;2024-02-21T06:38:55;10.70;99.90
15765;DHT22;7983;50.744;7.086;2024-02-21T06:41:20;10.80;99.90
15765;DHT22;7983;50.744;7.086;2024-02-21T06:43:49;10.80;99.90
15765;DHT22;7983;50.744;7.086;2024-02-21T06:46:28;10.80;99.90
15765;DHT22;7983;50.744;7.086;2024-02-21T06:49:01;10.80;99.90
15765;DHT22;7983;50.744;7.086;2024-02-21T06:51:27;10.80;99.90
15765;DHT22;7983;50.744;7.086;2024-02-21T06:53:53;10.80;99.90
15765;DHT22;7983;50.744;7.086;2024-02-21T06:56:24;10.80;99.90
15765;DHT22;7983;50.744;7.086;2024-02-21T06:58:54;10.90;99.90
15765;DHT22;7983;50.744;7.086;2024-02-21T07:01:23;10.80;99.90
15765;DHT22;7983;50.744;7.086;2024-02-21T07:03:53;10.80;99.90
15765;DHT22;7983;50.744;7.086;2024-02-21T07:06:19;10.80;99.90
15765;DHT22;7983;50.744;7.086;2024-02-21T07:08:44;10.80;99.90
15765;DHT22;7983;50.744;7.086;2024-02-21T07:11:12;10.80;99.90
15765;DHT22;7983;50.744;7.086;2024-02-21T07:13:38;10.80;99.90
15765;DHT22;7983;50.744;7.086;2024-02-21T07:16:04;10.70;99.90
15765;DHT22;7983;50.744;7.086;2024-02-21T07:18:34;10.70;99.90
15765;DHT22;7983;50.744;7.086;2024-02-21T07:21:02;10.60;99.90
15765;DHT22;7983;50.744;7.086;2024-02-21T07:23:28;10.70;99.90
15765;DHT22;7983;50.744;7.086;2024-02-21T07:25:54;10.60;99.90
15765;DHT22;7983;50.744;7.086;2024-02-21T07:28:24;10.60;99.90
15765;DHT22;7983;50.744;7.086;2024-02-21T07:30:52;10.60;99.90
15765;DHT22;7983;50.744;7.086;2024-02-21T07:33:17;10.70;99.90
15765;DHT22;7983;50.744;7.086;2024-02-21T07:35:46;10.60;99.90
15765;DHT22;7983;50.744;7.086;2024-02-21T07:38:11;10.70;99.90
15765;DHT22;7983;50.744;7.086;2024-02-21T07:40:38;10.70;99.90
15765;DHT22;7983;50.744;7.086;2024-02-21T07:43:06;10.60;99.90
15765;DHT22;7983;50.744;7.086;2024-02-21T07:45:36;10.70;99.90
15765;DHT22;7983;50.744;7.086;2024-02-21T07:48:02;10.60;99.90
15765;DHT22;7983;50.744;7.086;2024-02-21T07:50:27;10.60;99.90
15765;DHT22;7983;50.744;7.086;2024-02-21T07:52:53;10.60;99.90
15765;DHT22;7983;50.744;7.086;2024-02-21T07:55:21;10.60;99.90
15765;DHT22;7983;50.744;7.086;2024-02-21T07:57:48;10.60;99.90
15765;DHT22;7983;50.744;7.086;2024-02-21T08:00:15;10.60;99.90
15765;DHT22;7983;50.744;7.086;2024-02-21T08:02:45;10.60;99.90
15765;DHT22;7983;50.744;7.086;2024-02-21T08:05:11;10.60;99.90
15765;DHT22;7983;50.744;7.086;2024-02-21T08:07:40;10.60;99.90
15765;DHT22;7983;50.744;7.086;2024-02-21T08:10:08;10.60;99.90
15765;DHT22;7983;50.744;7.086;2024-02-21T08:12:34;10.70;99.90
15765;DHT22;7983;50.744;7.086;2024-02-21T08:15:00;10.60;99.90
15765;DHT22;7983;50.744;7.086;2024-02-21T08:17:26;10.70;99.90
15765;DHT22;7983;50.744;7.086;2024-02-21T08:19:56;10.80;99.90
15765;DHT22;7983;50.744;7.086;2024-02-21T08:22:21;10.80;99.90
15765;DHT22;7983;50.744;7.086;2024-02-21T08:24:47;10.80;99.90
15765;DHT22;7983;50.744;7.086;2024-02-21T08:27:15;10.80;99.90
15765;DHT22;7983;50.744;7.086;2024-02-21T08:29:42;10.80;99.90
15765;DHT22;7983;50.744;7.086;2024-02-21T08:32:11;10.80;99.90
15765;DHT22;7983;50.744;7.086;2024-02-21T08:34:38;10.90;99.90
15765;DHT22;7983;50.744;7.086;2024-02-21T08:37:04;10.90;99.90
15765;DHT22;7983;50.744;7.086;2024-02-21T08:39:30;10.90;99.90
15765;DHT22;7983;50.744;7.086;2024-02-21T08:42:00;10.90;99.90
15765;DHT22;7983;50.744;7.086;2024-02-21T08:44:30;10.90;99.90
15765;DHT22;7983;50.744;7.086;2024-02-21T08:46:58;10.90;99.90
15765;DHT22;7983;50.744;7.086;2024-02-21T08:49:23;10.90;99.90
15765;DHT22;7983;50.744;7.086;2024-02-21T08:51:52;10.90;99.90
15765;DHT22;7983;50.744;7.086;2024-02-21T08:54:20;11.00;99.90
15765;DHT22;7983;50.744;7.086;2024-02-21T08:56:46;11.00;99.90
15765;DHT22;7983;50.744;7.086;2024-02-21T08:59:11;11.00;99.90
15765;DHT22;7983;50.744;7.086;2024-02-21T09:01:37;11.10;99.90
15765;DHT22;7983;50.744;7.086;2024-02-21T09:04:03;11.10;99.90
15765;DHT22;7983;50.744;7.086;2024-02-21T09:06:28;11.10;99.90
15765;DHT22;7983;50.744;7.086;2024-02-21T09:08:57;11.10;99.90
15765;DHT22;7983;50.744;7.086;2024-02-21T09:11:25;11.10;99.90
15765;DHT22;7983;50.744;7.086;2024-02-21T09:13:55;11.20;99.90
15765;DHT22;7983;50.744;7.086;2024-02-21T09:16:20;11.20;99.90
15765;DHT22;7983;50.744;7.086;2024-02-21T09:18:46;11.30;99.90
15765;DHT22;7983;50.744;7.086;2024-02-21T09:21:16;11.30;99.90
15765;DHT22;7983;50.744;7.086;2024-02-21T09:23:42;11.40;99.90
15765;DHT22;7983;50.744;7.086;2024-02-21T09:26:07;11.40;99.90
15765;DHT22;7983;50.744;7.086;2024-02-21T09:28:35;11.50;99.90
15765;DHT22;7983;50.744;7.086;2024-02-21T09:31:01;11.50;99.90
15765;DHT22;7983;50.744;7.086;2024-02-21T09:33:27;11.60;99.90
15765;DHT22;7983;50.744;7.086;2024-02-21T09:35:52;11.60;99.90
15765;DHT22;7983;50.744;7.086;2024-02-21T09:38:18;11.60;99.90
15765;DHT22;7983;50.744;7.086;2024-02-21T09:40:51;11.60;99.90
15765;DHT22;7983;50.744;7.086;2024-02-21T09:43:19;11.70;99.90
15765;DHT22;7983;50.744;7.086;2024-02-21T09:45:46;11.70;99.90
15765;DHT22;7983;50.744;7.086;2024-02-21T09:51:01;11.80;99.90
15765;DHT22;7983;50.744;7.086;2024-02-21T09:53:27;11.90;99.90
15765;DHT22;7983;50.744;7.086;2024-02-21T09:55:57;11.90;99.90
15765;DHT22;7983;50.744;7.086;2024-02-21T09:58:23;12.00;99.90
15765;DHT22;7983;50.744;7.086;2024-02-21T10:00:53;12.10;99.90
15765;DHT22;7983;50.744;7.086;2024-02-21T10:03:19;12.10;99.90
15765;DHT22;7983;50.744;7.086;2024-02-21T10:05:48;12.20;99.90
15765;DHT22;7983;50.744;7.086;2024-02-21T10:08:19;12.30;99.90
15765;DHT22;7983;50.744;7.086;2024-02-21T10:10:50;12.30;99.90
15765;DHT22;7983;50.744;7.086;2024-02-21T10:13:28;12.50;99.90
15765;DHT22;7983;50.744;7.086;2024-02-21T10:16:01;12.50;99.90
15765;DHT22;7983;50.744;7.086;2024-02-21T10:18:28;12.50;99.90
15765;DHT22;7983;50.744;7.086;2024-02-21T10:21:06;12.60;99.90
15765;DHT22;7983;50.744;7.086;2024-02-21T10:23:48;12.60;99.90
15765;DHT22;7983;50.744;7.086;2024-02-21T10:26:15;12.70;99.90
15765;DHT22;7983;50.744;7.086;2024-02-21T10:28:43;12.70;99.90
15765;DHT22;7983;50.744;7.086;2024-02-21T10:31:24;12.70;99.90
15765;DHT22;7983;50.744;7.086;2024-02-21T10:33:58;12.70;99.90
15765;DHT22;7983;50.744;7.086;2024-02-21T10:36:26;12.70;99.90
15765;DHT22;7983;50.744;7.086;2024-02-21T10:38:53;12.70;99.90
15765;DHT22;7983;50.744;7.086;2024-02-21T10:41:21;12.70;99.90
15765;DHT22;7983;50.744;7.086;2024-02-21T10:43:54;12.80;99.90
15765;DHT22;7983;50.744;7.086;2024-02-21T10:46:21;12.80;99.90
15765;DHT22;7983;50.744;7.086;2024-02-21T10:48:48;12.90;99.90
15765;DHT22;7983;50.744;7.086;2024-02-21T10:51:20;13.00;99.90
15765;DHT22;7983;50.744;7.086;2024-02-21T10:56:34;13.10;99.90
15765;DHT22;7983;50.744;7.086;2024-02-21T10:59:07;13.20;99.90
15765;DHT22;7983;50.744;7.086;2024-02-21T11:01:33;13.30;99.90
15765;DHT22;7983;50.744;7.086;2024-02-21T11:04:06;13.30;99.90
15765;DHT22;7983;50.744;7.086;2024-02-21T11:06:33;13.30;99.90
15765;DHT22;7983;50.744;7.086;2024-02-21T11:09:08;13.30;99.90
15765;DHT22;7983;50.744;7.086;2024-02-21T11:11:34;13.40;99.90
15765;DHT22;7983;50.744;7.086;2024-02-21T11:14:20;13.40;99.90
15765;DHT22;7983;50.744;7.086;2024-02-21T11:16:47;13.40;99.90
15765;DHT22;7983;50.744;7.086;2024-02-21T11:19:23;13.50;99.90
15765;DHT22;7983;50.744;7.086;2024-02-21T11:21:53;13.50;99.90
15765;DHT22;7983;50.744;7.086;2024-02-21T11:24:34;13.60;99.90
15765;DHT22;7983;50.744;7.086;2024-02-21T11:27:12;13.60;99.90
15765;DHT22;7983;50.744;7.086;2024-02-21T11:29:49;13.60;99.90
15765;DHT22;7983;50.744;7.086;2024-02-21T11:32:22;13.60;99.90
15765;DHT22;7983;50.744;7.086;2024-02-21T11:35:02;13.50;99.90
15765;DHT22;7983;50.744;7.086;2024-02-21T11:37:30;13.60;99.90
15765;DHT22;7983;50.744;7.086;2024-02-21T11:40:00;13.60;99.90
15765;DHT22;7983;50.744;7.086;2024-02-21T11:42:26;13.60;99.90
15765;DHT22;7983;50.744;7.086;2024-02-21T11:44:53;13.60;99.90
15765;DHT22;7983;50.744;7.086;2024-02-21T11:47:19;13.60;99.90
15765;DHT22;7983;50.744;7.086;2024-02-21T11:49:46;13.60;99.90
15765;DHT22;7983;50.744;7.086;2024-02-21T11:52:12;13.60;99.90
15765;DHT22;7983;50.744;7.086;2024-02-21T11:54:43;13.50;99.90
15765;DHT22;7983;50.744;7.086;2024-02-21T11:57:13;13.50;99.90
15765;DHT22;7983;50.744;7.086;2024-02-21T11:59:40;13.50;99.90
15765;DHT22;7983;50.744;7.086;2024-02-21T12:02:06;13.50;99.90
15765;DHT22;7983;50.744;7.086;2024-02-21T12:04:32;13.40;99.90
15765;DHT22;7983;50.744;7.086;2024-02-21T12:07:01;13.40;99.90
15765;DHT22;7983;50.744;7.086;2024-02-21T12:09:30;13.40;99.90
15765;DHT22;7983;50.744;7.086;2024-02-21T12:12:05;13.40;99.90
15765;DHT22;7983;50.744;7.086;2024-02-21T12:14:38;13.40;99.90
15765;DHT22;7983;50.744;7.086;2024-02-21T12:17:06;13.40;99.90
15765;DHT22;7983;50.744;7.086;2024-02-21T12:19:33;13.40;99.90
15765;DHT22;7983;50.744;7.086;2024-02-21T12:21:59;13.40;99.90
15765;DHT22;7983;50.744;7.086;2024-02-21T12:24:26;13.40;99.90
15765;DHT22;7983;50.744;7.086;2024-02-21T12:26:55;13.40;99.90
15765;DHT22;7983;50.744;7.086;2024-02-21T12:29:24;13.40;99.90
15765;DHT22;7983;50.744;7.086;2024-02-21T12:31:52;13.40;99.90
15765;DHT22;7983;50.744;7.086;2024-02-21T12:34:20;13.40;99.90
15765;DHT22;7983;50.744;7.086;2024-02-21T12:36:49;13.40;99.90
15765;DHT22;7983;50.744;7.086;2024-02-21T12:39:15;13.50;99.90
15765;DHT22;7983;50.744;7.086;2024-02-21T12:41:41;13.50;99.90
15765;DHT22;7983;50.744;7.086;2024-02-21T12:44:10;13.50;99.90
15765;DHT22;7983;50.744;7.086;2024-02-21T12:46:39;13.50;99.90
15765;DHT22;7983;50.744;7.086;2024-02-21T12:49:07;13.50;99.90
15765;DHT22;7983;50.744;7.086;2024-02-21T12:51:36;13.50;99.90
15765;DHT22;7983;50.744;7.086;2024-02-21T12:54:02;13.50;99.90
15765;DHT22;7983;50.744;7.086;2024-02-21T12:56:30;13.50;99.90
15765;DHT22;7983;50.744;7.086;2024-02-21T12:58:57;13.50;99.90
15765;DHT22;7983;50.744;7.086;2024-02-21T13:01:22;13.60;99.90
15765;DHT22;7983;50.744;7.086;2024-02-21T13:03:48;13.40;99.90
15765;DHT22;7983;50.744;7.086;2024-02-21T13:06:16;13.50;99.90
15765;DHT22;7983;50.744;7.086;2024-02-21T13:08:44;13.50;99.90
15765;DHT22;7983;50.744;7.086;2024-02-21T13:11:15;13.50;99.90
15765;DHT22;7983;50.744;7.086;2024-02-21T13:13:43;13.60;99.90
15765;DHT22;7983;50.744;7.086;2024-02-21T13:16:09;13.60;99.90
15765;DHT22;7983;50.744;7.086;2024-02-21T13:18:38;13.60;99.90
15765;DHT22;7983;50.744;7.086;2024-02-21T13:21:07;13.70;99.90
15765;DHT22;7983;50.744;7.086;2024-02-21T13:23:33;13.70;99.90
15765;DHT22;7983;50.744;7.086;2024-02-21T13:25:59;13.70;99.90
15765;DHT22;7983;50.744;7.086;2024-02-21T13:28:24;13.70;99.90
15765;DHT22;7983;50.744;7.086;2024-02-21T13:30:50;13.70;99.90
15765;DHT22;7983;50.744;7.086;2024-02-21T13:33:16;13.80;99.90
15765;DHT22;7983;50.744;7.086;2024-02-21T13:35:44;13.70;99.90
15765;DHT22;7983;50.744;7.086;2024-02-21T13:38:10;13.70;99.90
15765;DHT22;7983;50.744;7.086;2024-02-21T13:40:38;13.70;99.90
15765;DHT22;7983;50.744;7.086;2024-02-21T13:43:04;13.70;99.90
15765;DHT22;7983;50.744;7.086;2024-02-21T13:45:30;13.70;99.90
15765;DHT22;7983;50.744;7.086;2024-02-21T13:47:58;13.70;99.90
15765;DHT22;7983;50.744;7.086;2024-02-21T13:50:29;13.70;99.90
15765;DHT22;7983;50.744;7.086;2024-02-21T13:52:58;13.60;99.90
15765;DHT22;7983;50.744;7.086;2024-02-21T13:55:24;13.60;99.90
15765;DHT22;7983;50.744;7.086;2024-02-21T13:57:52;13.70;99.90
15765;DHT22;7983;50.744;7.086;2024-02-21T14:00:18;13.60;99.90
15765;DHT22;7983;50.744;7.086;2024-02-21T14:02:46;13.60;99.90
15765;DHT22;7983;50.744;7.086;2024-02-21T14:05:12;13.60;99.90
15765;DHT22;7983;50.744;7.086;2024-02-21T14:07:38;13.60;99.90
15765;DHT22;7983;50.744;7.086;2024-02-21T14:10:09;13.60;99.90
15765;DHT22;7983;50.744;7.086;2024-02-21T14:12:35;13.60;99.90
15765;DHT22;7983;50.744;7.086;2024-02-21T14:15:00;13.60;99.90
15765;DHT22;7983;50.744;7.086;2024-02-21T14:17:28;13.60;99.90
15765;DHT22;7983;50.744;7.086;2024-02-21T14:19:54;13.60;99.90
15765;DHT22;7983;50.744;7.086;2024-02-21T14:22:19;13.70;99.90
15765;DHT22;7983;50.744;7.086;2024-02-21T14:24:47;13.70;99.90
15765;DHT22;7983;50.744;7.086;2024-02-21T14:27:15;13.70;99.90
15765;DHT22;7983;50.744;7.086;2024-02-21T14:29:41;13.70;99.90
15765;DHT22;7983;50.744;7.086;2024-02-21T14:32:07;13.70;99.90
15765;DHT22;7983;50.744;7.086;2024-02-21T14:34:35;13.70;99.90
15765;DHT22;7983;50.744;7.086;2024-02-21T14:37:00;13.70;99.90
15765;DHT22;7983;50.744;7.086;2024-02-21T14:39:31;13.60;99.90
15765;DHT22;7983;50.744;7.086;2024-02-21T14:42:00;13.70;99.90
15765;DHT22;7983;50.744;7.086;2024-02-21T14:44:26;13.60;99.90
15765;DHT22;7983;50.744;7.086;2024-02-21T14:46:52;13.70;99.90
15765;DHT22;7983;50.744;7.086;2024-02-21T14:49:18;13.70;99.90
15765;DHT22;7983;50.744;7.086;2024-02-21T14:51:49;13.70;99.90
15765;DHT22;7983;50.744;7.086;2024-02-21T14:54:20;13.70;99.90
15765;DHT22;7983;50.744;7.086;2024-02-21T14:56:46;13.70;99.90
15765;DHT22;7983;50.744;7.086;2024-02-21T14:59:12;13.70;99.90
15765;DHT22;7983;50.744;7.086;2024-02-21T15:01:38;13.70;99.90
15765;DHT22;7983;50.744;7.086;2024-02-21T15:04:04;13.70;99.90
15765;DHT22;7983;50.744;7.086;2024-02-21T15:06:32;13.70;99.90
15765;DHT22;7983;50.744;7.086;2024-02-21T15:08:58;13.70;99.90
15765;DHT22;7983;50.744;7.086;2024-02-21T15:11:26;13.70;99.90
15765;DHT22;7983;50.744;7.086;2024-02-21T15:13:56;13.70;99.90
15765;DHT22;7983;50.744;7.086;2024-02-21T15:16:24;13.70;99.90
15765;DHT22;7983;50.744;7.086;2024-02-21T15:18:52;13.70;99.90
15765;DHT22;7983;50.744;7.086;2024-02-21T15:21:18;13.70;99.90
15765;DHT22;7983;50.744;7.086;2024-02-21T15:23:44;13.70;99.90
15765;DHT22;7983;50.744;7.086;2024-02-21T15:26:12;13.70;99.90
15765;DHT22;7983;50.744;7.086;2024-02-21T15:28:40;13.70;99.90
15765;DHT22;7983;50.744;7.086;2024-02-21T15:31:08;13.70;99.90
15765;DHT22;7983;50.744;7.086;2024-02-21T15:33:34;13.60;99.90
15765;DHT22;7983;50.744;7.086;2024-02-21T15:36:00;13.60;99.90
15765;DHT22;7983;50.744;7.086;2024-02-21T15:38:27;13.60;99.90
15765;DHT22;7983;50.744;7.086;2024-02-21T15:40:56;13.60;99.90
15765;DHT22;7983;50.744;7.086;2024-02-21T15:43:22;13.50;99.90
15765;DHT22;7983;50.744;7.086;2024-02-21T15:45:54;13.50;99.90
15765;DHT22;7983;50.744;7.086;2024-02-21T15:48:20;13.40;99.90
15765;DHT22;7983;50.744;7.086;2024-02-21T15:50:48;13.40;99.90
15765;DHT22;7983;50.744;7.086;2024-02-21T15:53:14;13.40;99.90